sensor_id;sensor_type;location;lat;lon;timestamp;noise_LAeq;noise_LA_min;noise_LA_max;noise_LA01;noise_LA95
43385;Laerm;28988;48.042;7.584;2023-09-19T00:00:33;84.29;-28.29;94.98;;
43385;Laerm;28988;48.042;7.584;2023-09-19T00:02:59;84.30;-23.73;95.47;;
43385;Laerm;28988;48.042;7.584;2023-09-19T00:05:28;84.30;-57.68;95.28;;
43385;Laerm;28988;48.042;7.584;2023-09-19T00:07:55;84.28;-57.68;95.27;;
43385;Laerm;28988;48.042;7.584;2023-09-19T00:10:21;84.29;-57.68;94.86;;
43385;Laerm;28988;48.042;7.584;2023-09-19T00:12:58;84.29;-28.29;95.50;;
43385;Laerm;28988;48.042;7.584;2023-09-19T00:15:30;84.29;-57.68;95.22;;
43385;Laerm;28988;48.042;7.584;2023-09-19T00:18:08;84.30;-23.73;95.31;;
43385;Laerm;28988;48.042;7.584;2023-09-19T00:20:37;84.28;-23.73;95.34;;
43385;Laerm;28988;48.042;7.584;2023-09-19T00:23:02;84.29;-30.47;96.22;;
43385;Laerm;28988;48.042;7.584;2023-09-19T00:25:30;84.28;-57.68;95.00;;
43385;Laerm;28988;48.042;7.584;2023-09-19T00:27:57;84.32;-33.10;95.50;;
43385;Laerm;28988;48.042;7.584;2023-09-19T00:30:23;84.33;-57.68;95.50;;
43385;Laerm;28988;48.042;7.584;2023-09-19T00:32:49;84.30;-57.68;95.11;;
43385;Laerm;28988;48.042;7.584;2023-09-19T00:35:19;84.29;-23.73;94.92;;
43385;Laerm;28988;48.042;7.584;2023-09-19T00:37:44;84.29;-28.29;95.55;;
43385;Laerm;28988;48.042;7.584;2023-09-19T00:40:10;84.32;-22.63;95.81;;
43385;Laerm;28988;48.042;7.584;2023-09-19T00:42:37;84.32;-23.73;94.97;;
43385;Laerm;28988;48.042;7.584;2023-09-19T00:45:02;84.30;-24.06;95.39;;
43385;Laerm;28988;48.042;7.584;2023-09-19T00:47:28;84.33;-32.43;95.36;;
43385;Laerm;28988;48.042;7.584;2023-09-19T00:49:54;84.31;-57.68;95.91;;
43385;Laerm;28988;48.042;7.584;2023-09-19T00:52:20;84.29;-23.73;94.51;;
43385;Laerm;28988;48.042;7.584;2023-09-19T00:54:46;84.30;-33.99;94.99;;
43385;Laerm;28988;48.042;7.584;2023-09-19T00:57:12;84.30;-23.73;94.74;;
43385;Laerm;28988;48.042;7.584;2023-09-19T00:59:39;84.31;-26.87;95.48;;
43385;Laerm;28988;48.042;7.584;2023-09-19T01:02:05;84.31;-47.82;94.91;;
43385;Laerm;28988;48.042;7.584;2023-09-19T01:04:32;84.30;-28.29;95.15;;
43385;Laerm;28988;48.042;7.584;2023-09-19T01:06:58;84.30;-57.68;95.48;;
43385;Laerm;28988;48.042;7.584;2023-09-19T01:09:23;84.32;-57.68;95.01;;
43385;Laerm;28988;48.042;7.584;2023-09-19T01:11:50;84.29;-23.73;95.20;;
43385;Laerm;28988;48.042;7.584;2023-09-19T01:14:20;84.30;-57.68;95.11;;
43385;Laerm;28988;48.042;7.584;2023-09-19T01:17:00;84.30;-24.05;95.22;;
43385;Laerm;28988;48.042;7.584;2023-09-19T01:22:16;84.27;-57.68;95.04;;
43385;Laerm;28988;48.042;7.584;2023-09-19T01:30:24;84.27;-45.06;95.80;;
43385;Laerm;28988;48.042;7.584;2023-09-19T01:32:52;84.28;-28.29;95.29;;
43385;Laerm;28988;48.042;7.584;2023-09-19T01:35:18;84.28;-23.73;95.39;;
43385;Laerm;28988;48.042;7.584;2023-09-19T01:37:43;84.29;-38.65;95.06;;
43385;Laerm;28988;48.042;7.584;2023-09-19T01:40:10;84.30;-57.68;94.78;;
43385;Laerm;28988;48.042;7.584;2023-09-19T01:43:04;84.26;-28.29;94.88;;
43385;Laerm;28988;48.042;7.584;2023-09-19T01:47:56;84.32;-23.73;95.60;;
43385;Laerm;28988;48.042;7.584;2023-09-19T01:53:00;84.33;-20.54;95.30;;
43385;Laerm;28988;48.042;7.584;2023-09-19T01:55:29;84.33;-28.29;96.30;;
43385;Laerm;28988;48.042;7.584;2023-09-19T01:58:04;84.31;-23.73;95.65;;
43385;Laerm;28988;48.042;7.584;2023-09-19T02:00:32;84.34;-23.73;95.47;;
43385;Laerm;28988;48.042;7.584;2023-09-19T02:02:57;84.34;-20.54;96.12;;
43385;Laerm;28988;48.042;7.584;2023-09-19T02:05:24;84.33;-32.58;95.42;;
43385;Laerm;28988;48.042;7.584;2023-09-19T02:07:50;84.33;-36.07;95.43;;
43385;Laerm;28988;48.042;7.584;2023-09-19T02:10:16;84.32;-28.29;96.01;;
43385;Laerm;28988;48.042;7.584;2023-09-19T02:12:42;84.34;-23.73;95.29;;
43385;Laerm;28988;48.042;7.584;2023-09-19T02:15:07;84.33;-23.73;95.58;;
43385;Laerm;28988;48.042;7.584;2023-09-19T02:17:33;84.33;-23.73;95.64;;
43385;Laerm;28988;48.042;7.584;2023-09-19T02:19:58;84.33;-33.10;95.69;;
43385;Laerm;28988;48.042;7.584;2023-09-19T02:22:23;84.35;-28.29;95.50;;
43385;Laerm;28988;48.042;7.584;2023-09-19T02:24:49;84.32;-57.68;94.95;;
43385;Laerm;28988;48.042;7.584;2023-09-19T02:27:15;84.33;-34.16;95.77;;
43385;Laerm;28988;48.042;7.584;2023-09-19T02:29:41;84.33;-57.68;95.57;;
43385;Laerm;28988;48.042;7.584;2023-09-19T02:32:06;84.32;-23.73;95.90;;
43385;Laerm;28988;48.042;7.584;2023-09-19T02:34:32;84.33;-28.29;95.57;;
43385;Laerm;28988;48.042;7.584;2023-09-19T02:36:57;84.31;-24.06;95.55;;
43385;Laerm;28988;48.042;7.584;2023-09-19T02:39:22;84.33;-57.68;94.95;;
43385;Laerm;28988;48.042;7.584;2023-09-19T02:41:48;84.32;-25.90;95.46;;
43385;Laerm;28988;48.042;7.584;2023-09-19T02:44:13;84.34;-26.87;95.59;;
43385;Laerm;28988;48.042;7.584;2023-09-19T02:46:39;84.34;-23.73;95.48;;
43385;Laerm;28988;48.042;7.584;2023-09-19T02:49:04;84.33;-57.68;95.16;;
43385;Laerm;28988;48.042;7.584;2023-09-19T02:51:32;84.33;-57.68;95.41;;
43385;Laerm;28988;48.042;7.584;2023-09-19T02:54:01;84.33;-57.68;95.34;;
43385;Laerm;28988;48.042;7.584;2023-09-19T02:56:28;84.35;-23.73;95.52;;
43385;Laerm;28988;48.042;7.584;2023-09-19T02:58:54;84.34;-29.15;95.74;;
43385;Laerm;28988;48.042;7.584;2023-09-19T03:01:20;84.32;-23.73;95.67;;
43385;Laerm;28988;48.042;7.584;2023-09-19T03:03:45;84.32;-20.54;95.83;;
43385;Laerm;28988;48.042;7.584;2023-09-19T03:06:10;84.35;-57.68;95.86;;
43385;Laerm;28988;48.042;7.584;2023-09-19T03:08:37;84.35;-28.29;95.57;;
43385;Laerm;28988;48.042;7.584;2023-09-19T03:11:04;84.32;-28.29;95.37;;
43385;Laerm;28988;48.042;7.584;2023-09-19T03:13:31;84.34;-23.73;95.86;;
43385;Laerm;28988;48.042;7.584;2023-09-19T03:15:56;84.35;-23.73;95.69;;
43385;Laerm;28988;48.042;7.584;2023-09-19T03:18:23;84.34;-23.73;95.79;;
43385;Laerm;28988;48.042;7.584;2023-09-19T03:20:55;84.35;-57.68;95.95;;
43385;Laerm;28988;48.042;7.584;2023-09-19T03:23:20;84.33;-23.73;95.59;;
43385;Laerm;28988;48.042;7.584;2023-09-19T03:25:45;84.35;-23.73;96.34;;
43385;Laerm;28988;48.042;7.584;2023-09-19T03:28:11;84.36;-57.68;95.60;;
43385;Laerm;28988;48.042;7.584;2023-09-19T03:30:37;84.34;-28.29;95.44;;
43385;Laerm;28988;48.042;7.584;2023-09-19T03:33:03;84.36;-23.73;95.61;;
43385;Laerm;28988;48.042;7.584;2023-09-19T03:35:29;84.34;-23.73;95.76;;
43385;Laerm;28988;48.042;7.584;2023-09-19T03:37:55;84.35;-23.73;95.38;;
43385;Laerm;28988;48.042;7.584;2023-09-19T03:40:20;84.36;-34.16;95.33;;
43385;Laerm;28988;48.042;7.584;2023-09-19T03:42:46;84.35;-23.73;95.74;;
43385;Laerm;28988;48.042;7.584;2023-09-19T03:45:12;84.33;-32.69;95.58;;
43385;Laerm;28988;48.042;7.584;2023-09-19T03:47:40;84.34;-23.73;95.59;;
43385;Laerm;28988;48.042;7.584;2023-09-19T03:50:06;84.34;-20.54;95.45;;
43385;Laerm;28988;48.042;7.584;2023-09-19T03:52:33;84.32;-23.73;95.74;;
43385;Laerm;28988;48.042;7.584;2023-09-19T03:54:58;84.33;-57.68;95.61;;
43385;Laerm;28988;48.042;7.584;2023-09-19T03:57:23;84.34;-23.73;96.07;;
43385;Laerm;28988;48.042;7.584;2023-09-19T03:59:49;84.33;-22.86;96.12;;
43385;Laerm;28988;48.042;7.584;2023-09-19T04:02:14;84.33;-39.78;95.35;;
43385;Laerm;28988;48.042;7.584;2023-09-19T04:04:50;84.33;-41.54;95.65;;
43385;Laerm;28988;48.042;7.584;2023-09-19T04:07:16;84.34;-23.73;95.36;;
43385;Laerm;28988;48.042;7.584;2023-09-19T04:09:41;84.34;-28.29;95.80;;
43385;Laerm;28988;48.042;7.584;2023-09-19T04:12:07;84.32;-25.07;95.45;;
43385;Laerm;28988;48.042;7.584;2023-09-19T04:14:33;84.34;-57.68;95.15;;
43385;Laerm;28988;48.042;7.584;2023-09-19T04:16:59;84.34;-28.29;95.98;;
43385;Laerm;28988;48.042;7.584;2023-09-19T04:19:25;84.33;-57.68;95.27;;
43385;Laerm;28988;48.042;7.584;2023-09-19T04:21:50;84.35;-23.73;94.73;;
43385;Laerm;28988;48.042;7.584;2023-09-19T04:24:15;84.34;-23.73;95.57;;
43385;Laerm;28988;48.042;7.584;2023-09-19T04:26:41;84.34;-23.73;95.71;;
43385;Laerm;28988;48.042;7.584;2023-09-19T04:29:07;84.32;-57.68;96.32;;
43385;Laerm;28988;48.042;7.584;2023-09-19T04:31:36;84.34;-23.73;95.83;;
43385;Laerm;28988;48.042;7.584;2023-09-19T04:34:05;84.33;-57.68;95.48;;
43385;Laerm;28988;48.042;7.584;2023-09-19T04:36:30;84.35;-31.81;95.71;;
43385;Laerm;28988;48.042;7.584;2023-09-19T04:38:55;84.35;-40.00;95.36;;
43385;Laerm;28988;48.042;7.584;2023-09-19T04:41:21;84.39;-35.42;96.29;;
43385;Laerm;28988;48.042;7.584;2023-09-19T04:43:47;84.39;-22.86;95.91;;
43385;Laerm;28988;48.042;7.584;2023-09-19T04:46:12;84.39;-57.68;95.71;;
43385;Laerm;28988;48.042;7.584;2023-09-19T04:48:39;84.42;-39.78;95.82;;
43385;Laerm;28988;48.042;7.584;2023-09-19T04:51:04;84.41;-23.58;95.96;;
43385;Laerm;28988;48.042;7.584;2023-09-19T04:53:30;84.42;-23.73;96.30;;
43385;Laerm;28988;48.042;7.584;2023-09-19T04:55:55;84.41;-23.73;96.05;;
43385;Laerm;28988;48.042;7.584;2023-09-19T04:58:21;84.41;-39.78;95.68;;
43385;Laerm;28988;48.042;7.584;2023-09-19T05:00:46;84.38;-23.73;95.90;;
43385;Laerm;28988;48.042;7.584;2023-09-19T05:03:11;84.38;-26.87;95.47;;
43385;Laerm;28988;48.042;7.584;2023-09-19T05:05:37;84.39;-28.29;96.23;;
43385;Laerm;28988;48.042;7.584;2023-09-19T05:08:03;84.39;-28.29;95.85;;
43385;Laerm;28988;48.042;7.584;2023-09-19T05:10:30;84.37;-28.29;95.24;;
43385;Laerm;28988;48.042;7.584;2023-09-19T05:12:55;84.38;-20.54;96.39;;
43385;Laerm;28988;48.042;7.584;2023-09-19T05:15:20;84.37;-23.73;95.82;;
43385;Laerm;28988;48.042;7.584;2023-09-19T05:17:52;84.35;-57.68;95.96;;
43385;Laerm;28988;48.042;7.584;2023-09-19T05:20:19;84.34;-33.10;96.13;;
43385;Laerm;28988;48.042;7.584;2023-09-19T05:23:06;84.32;-28.42;95.42;;
43385;Laerm;28988;48.042;7.584;2023-09-19T05:25:37;84.32;-32.84;95.34;;
43385;Laerm;28988;48.042;7.584;2023-09-19T05:28:04;84.33;-57.68;95.45;;
43385;Laerm;28988;48.042;7.584;2023-09-19T05:30:31;84.34;-23.73;96.33;;
43385;Laerm;28988;48.042;7.584;2023-09-19T05:32:56;84.33;-31.18;95.57;;
43385;Laerm;28988;48.042;7.584;2023-09-19T05:35:22;84.32;-23.73;95.73;;
43385;Laerm;28988;48.042;7.584;2023-09-19T05:37:48;84.34;-25.00;95.76;;
43385;Laerm;28988;48.042;7.584;2023-09-19T05:40:15;84.35;-23.73;94.94;;
43385;Laerm;28988;48.042;7.584;2023-09-19T05:42:41;84.33;-57.68;95.30;;
43385;Laerm;28988;48.042;7.584;2023-09-19T05:45:06;84.34;-22.63;95.07;;
43385;Laerm;28988;48.042;7.584;2023-09-19T05:47:32;84.32;-23.73;95.29;;
43385;Laerm;28988;48.042;7.584;2023-09-19T05:49:57;84.34;-26.35;95.86;;
43385;Laerm;28988;48.042;7.584;2023-09-19T05:52:22;84.33;-28.52;95.56;;
43385;Laerm;28988;48.042;7.584;2023-09-19T05:54:47;84.31;-57.68;95.29;;
43385;Laerm;28988;48.042;7.584;2023-09-19T05:57:13;84.32;-23.73;96.51;;
43385;Laerm;28988;48.042;7.584;2023-09-19T05:59:40;84.31;-23.73;95.55;;
43385;Laerm;28988;48.042;7.584;2023-09-19T06:02:07;84.31;-34.16;95.68;;
43385;Laerm;28988;48.042;7.584;2023-09-19T06:04:34;84.32;-28.29;95.15;;
43385;Laerm;28988;48.042;7.584;2023-09-19T06:06:59;84.33;-23.73;96.03;;
43385;Laerm;28988;48.042;7.584;2023-09-19T06:09:25;84.33;-23.73;95.42;;
43385;Laerm;28988;48.042;7.584;2023-09-19T06:11:52;84.33;-23.73;95.87;;
43385;Laerm;28988;48.042;7.584;2023-09-19T06:14:18;84.33;-26.87;95.18;;
43385;Laerm;28988;48.042;7.584;2023-09-19T06:16:43;84.31;-23.73;95.62;;
43385;Laerm;28988;48.042;7.584;2023-09-19T06:19:08;84.33;-57.68;95.59;;
43385;Laerm;28988;48.042;7.584;2023-09-19T06:21:34;84.31;-23.73;95.38;;
43385;Laerm;28988;48.042;7.584;2023-09-19T06:24:00;84.29;-23.73;95.01;;
43385;Laerm;28988;48.042;7.584;2023-09-19T06:26:25;84.30;-23.73;95.18;;
43385;Laerm;28988;48.042;7.584;2023-09-19T06:28:52;84.29;-23.73;95.01;;
43385;Laerm;28988;48.042;7.584;2023-09-19T06:31:17;84.32;-23.73;95.31;;
43385;Laerm;28988;48.042;7.584;2023-09-19T06:33:43;84.29;-23.73;95.09;;
43385;Laerm;28988;48.042;7.584;2023-09-19T06:36:08;84.30;-28.29;94.92;;
43385;Laerm;28988;48.042;7.584;2023-09-19T06:38:33;84.29;-33.10;94.97;;
43385;Laerm;28988;48.042;7.584;2023-09-19T06:41:01;84.30;-23.73;95.59;;
43385;Laerm;28988;48.042;7.584;2023-09-19T06:43:29;84.29;-23.73;95.37;;
43385;Laerm;28988;48.042;7.584;2023-09-19T06:45:55;84.31;-28.29;95.30;;
43385;Laerm;28988;48.042;7.584;2023-09-19T06:48:21;84.31;-28.29;95.14;;
43385;Laerm;28988;48.042;7.584;2023-09-19T06:50:46;84.29;-29.13;95.16;;
43385;Laerm;28988;48.042;7.584;2023-09-19T06:53:13;84.29;-33.10;95.77;;
43385;Laerm;28988;48.042;7.584;2023-09-19T06:55:38;84.29;-23.73;95.48;;
43385;Laerm;28988;48.042;7.584;2023-09-19T06:58:03;84.29;-33.11;94.71;;
43385;Laerm;28988;48.042;7.584;2023-09-19T07:00:31;84.28;-23.73;94.94;;
43385;Laerm;28988;48.042;7.584;2023-09-19T07:05:23;84.27;-28.29;95.53;;
43385;Laerm;28988;48.042;7.584;2023-09-19T07:07:49;84.27;-34.16;94.72;;
43385;Laerm;28988;48.042;7.584;2023-09-19T07:10:14;84.27;-57.68;94.83;;
43385;Laerm;28988;48.042;7.584;2023-09-19T07:12:39;84.26;-28.29;94.64;;
43385;Laerm;28988;48.042;7.584;2023-09-19T07:15:06;84.27;-57.68;94.99;;
43385;Laerm;28988;48.042;7.584;2023-09-19T07:17:31;84.26;-33.10;94.89;;
43385;Laerm;28988;48.042;7.584;2023-09-19T07:19:58;84.27;-23.73;94.80;;
43385;Laerm;28988;48.042;7.584;2023-09-19T07:22:23;84.25;-33.10;94.16;;
43385;Laerm;28988;48.042;7.584;2023-09-19T07:24:48;84.25;-28.29;94.50;;
43385;Laerm;28988;48.042;7.584;2023-09-19T07:27:14;84.25;-22.86;95.13;;
43385;Laerm;28988;48.042;7.584;2023-09-19T07:29:39;84.24;-23.73;94.78;;
43385;Laerm;28988;48.042;7.584;2023-09-19T07:32:04;84.24;-34.16;94.43;;
43385;Laerm;28988;48.042;7.584;2023-09-19T07:34:31;84.24;-22.68;94.53;;
43385;Laerm;28988;48.042;7.584;2023-09-19T07:36:56;84.24;-33.10;94.66;;
43385;Laerm;28988;48.042;7.584;2023-09-19T07:39:21;84.24;-57.68;94.77;;
43385;Laerm;28988;48.042;7.584;2023-09-19T07:41:46;84.23;-29.24;94.81;;
43385;Laerm;28988;48.042;7.584;2023-09-19T07:44:15;84.22;-30.81;94.16;;
43385;Laerm;28988;48.042;7.584;2023-09-19T07:46:40;84.21;-23.73;94.15;;
43385;Laerm;28988;48.042;7.584;2023-09-19T07:49:05;84.21;-23.90;94.01;;
43385;Laerm;28988;48.042;7.584;2023-09-19T07:51:30;84.21;-57.68;94.91;;
43385;Laerm;28988;48.042;7.584;2023-09-19T07:53:55;84.22;-23.73;93.96;;
43385;Laerm;28988;48.042;7.584;2023-09-19T07:56:21;84.21;-57.68;94.26;;
43385;Laerm;28988;48.042;7.584;2023-09-19T07:58:47;84.20;-33.10;93.86;;
43385;Laerm;28988;48.042;7.584;2023-09-19T08:01:12;84.21;-23.73;94.28;;
43385;Laerm;28988;48.042;7.584;2023-09-19T08:03:39;84.22;-57.68;94.17;;
43385;Laerm;28988;48.042;7.584;2023-09-19T08:06:08;84.22;-23.73;94.26;;
43385;Laerm;28988;48.042;7.584;2023-09-19T08:08:33;84.20;-28.29;94.32;;
43385;Laerm;28988;48.042;7.584;2023-09-19T08:11:05;84.20;-23.73;94.46;;
43385;Laerm;28988;48.042;7.584;2023-09-19T08:13:40;84.21;-28.29;94.15;;
43385;Laerm;28988;48.042;7.584;2023-09-19T08:16:09;84.21;-40.41;94.26;;
43385;Laerm;28988;48.042;7.584;2023-09-19T08:18:35;84.21;-46.21;94.37;;
43385;Laerm;28988;48.042;7.584;2023-09-19T08:21:00;84.21;-57.68;94.27;;
43385;Laerm;28988;48.042;7.584;2023-09-19T08:23:26;84.21;-57.68;93.82;;
43385;Laerm;28988;48.042;7.584;2023-09-19T08:25:55;84.21;-34.16;94.30;;
43385;Laerm;28988;48.042;7.584;2023-09-19T08:28:21;84.19;-57.68;94.14;;
43385;Laerm;28988;48.042;7.584;2023-09-19T08:30:49;84.19;-23.73;94.12;;
43385;Laerm;28988;48.042;7.584;2023-09-19T08:33:14;84.21;-23.73;94.30;;
43385;Laerm;28988;48.042;7.584;2023-09-19T08:35:42;84.20;-33.10;93.92;;
43385;Laerm;28988;48.042;7.584;2023-09-19T08:38:09;84.18;-57.68;94.31;;
43385;Laerm;28988;48.042;7.584;2023-09-19T08:40:39;84.19;-33.10;94.22;;
43385;Laerm;28988;48.042;7.584;2023-09-19T08:43:05;84.16;-57.68;94.28;;
43385;Laerm;28988;48.042;7.584;2023-09-19T08:45:30;84.17;-28.29;93.51;;
43385;Laerm;28988;48.042;7.584;2023-09-19T08:48:05;84.17;-34.16;93.81;;
43385;Laerm;28988;48.042;7.584;2023-09-19T08:50:32;84.15;-28.29;93.29;;
43385;Laerm;28988;48.042;7.584;2023-09-19T08:53:01;84.15;-33.10;93.87;;
43385;Laerm;28988;48.042;7.584;2023-09-19T08:55:31;84.15;-24.58;93.83;;
43385;Laerm;28988;48.042;7.584;2023-09-19T08:58:03;84.14;-34.16;93.13;;
43385;Laerm;28988;48.042;7.584;2023-09-19T09:00:29;84.15;-36.76;93.70;;
43385;Laerm;28988;48.042;7.584;2023-09-19T09:02:56;84.15;-23.73;93.57;;
43385;Laerm;28988;48.042;7.584;2023-09-19T09:05:22;84.14;-24.05;93.62;;
43385;Laerm;28988;48.042;7.584;2023-09-19T09:07:49;84.14;-57.68;93.27;;
43385;Laerm;28988;48.042;7.584;2023-09-19T09:10:16;84.15;-57.68;93.22;;
43385;Laerm;28988;48.042;7.584;2023-09-19T09:12:41;84.15;-57.68;93.05;;
43385;Laerm;28988;48.042;7.584;2023-09-19T09:15:09;84.14;-57.68;93.40;;
43385;Laerm;28988;48.042;7.584;2023-09-19T09:17:36;84.14;-57.68;94.16;;
43385;Laerm;28988;48.042;7.584;2023-09-19T09:20:02;84.14;-23.73;93.35;;
43385;Laerm;28988;48.042;7.584;2023-09-19T09:22:30;84.14;-33.10;93.22;;
43385;Laerm;28988;48.042;7.584;2023-09-19T09:24:57;84.13;-33.10;92.89;;
43385;Laerm;28988;48.042;7.584;2023-09-19T09:27:29;84.14;-57.68;93.08;;
43385;Laerm;28988;48.042;7.584;2023-09-19T09:29:54;84.14;-22.68;93.22;;
43385;Laerm;28988;48.042;7.584;2023-09-19T09:32:23;84.13;-57.68;93.04;;
43385;Laerm;28988;48.042;7.584;2023-09-19T09:34:53;84.14;-66.56;93.48;;
43385;Laerm;28988;48.042;7.584;2023-09-19T09:37:18;84.14;-23.73;93.36;;
43385;Laerm;28988;48.042;7.584;2023-09-19T09:42:29;84.13;-57.68;93.13;;
43385;Laerm;28988;48.042;7.584;2023-09-19T09:45:13;84.14;-57.68;93.71;;
43385;Laerm;28988;48.042;7.584;2023-09-19T09:47:48;84.14;-57.68;93.08;;
43385;Laerm;28988;48.042;7.584;2023-09-19T09:50:26;84.13;-57.68;93.17;;
43385;Laerm;28988;48.042;7.584;2023-09-19T09:52:54;84.14;-33.10;93.22;;
43385;Laerm;28988;48.042;7.584;2023-09-19T09:55:25;84.14;-57.68;93.11;;
43385;Laerm;28988;48.042;7.584;2023-09-19T09:58:00;84.14;-33.10;93.22;;
43385;Laerm;28988;48.042;7.584;2023-09-19T10:00:39;84.14;-57.68;93.22;;
43385;Laerm;28988;48.042;7.584;2023-09-19T10:03:20;84.14;-38.12;93.87;;
43385;Laerm;28988;48.042;7.584;2023-09-19T10:05:53;84.14;-23.73;93.40;;
43385;Laerm;28988;48.042;7.584;2023-09-19T10:08:20;84.14;-57.68;93.13;;
43385;Laerm;28988;48.042;7.584;2023-09-19T10:10:45;84.14;-57.68;92.97;;
43385;Laerm;28988;48.042;7.584;2023-09-19T10:13:19;84.14;-57.68;93.79;;
43385;Laerm;28988;48.042;7.584;2023-09-19T10:15:50;84.13;-57.68;92.99;;
43385;Laerm;28988;48.042;7.584;2023-09-19T10:18:20;84.15;-57.68;93.26;;
43385;Laerm;28988;48.042;7.584;2023-09-19T10:20:46;84.14;-57.68;93.12;;
43385;Laerm;28988;48.042;7.584;2023-09-19T10:23:13;84.15;-57.68;93.57;;
43385;Laerm;28988;48.042;7.584;2023-09-19T10:25:40;84.13;-57.68;93.04;;
43385;Laerm;28988;48.042;7.584;2023-09-19T10:28:06;84.14;-33.10;93.14;;
43385;Laerm;28988;48.042;7.584;2023-09-19T10:30:36;84.14;-34.15;93.47;;
43385;Laerm;28988;48.042;7.584;2023-09-19T10:33:02;84.16;-52.22;93.03;;
43385;Laerm;28988;48.042;7.584;2023-09-19T10:35:28;84.19;-25.75;93.42;;
43385;Laerm;28988;48.042;7.584;2023-09-19T10:37:54;84.18;-37.47;92.93;;
43385;Laerm;28988;48.042;7.584;2023-09-19T10:40:21;84.21;-42.00;93.43;;
43385;Laerm;28988;48.042;7.584;2023-09-19T10:42:50;84.32;-31.19;93.62;;
43385;Laerm;28988;48.042;7.584;2023-09-19T10:45:15;84.37;-30.70;93.66;;
43385;Laerm;28988;48.042;7.584;2023-09-19T10:47:43;84.34;-55.81;94.07;;
43385;Laerm;28988;48.042;7.584;2023-09-19T10:50:09;84.37;-33.66;94.04;;
43385;Laerm;28988;48.042;7.584;2023-09-19T10:52:37;84.57;-41.67;93.97;;
43385;Laerm;28988;48.042;7.584;2023-09-19T10:55:03;85.36;-37.57;94.66;;
43385;Laerm;28988;48.042;7.584;2023-09-19T10:57:29;89.24;-50.15;95.44;;
43385;Laerm;28988;48.042;7.584;2023-09-19T11:00:04;92.93;-33.92;98.04;;
43385;Laerm;28988;48.042;7.584;2023-09-19T11:05:31;91.34;-51.59;97.00;;
43385;Laerm;28988;48.042;7.584;2023-09-19T11:07:57;90.99;-21.41;97.17;;
43385;Laerm;28988;48.042;7.584;2023-09-19T11:13:23;84.91;-26.71;93.69;;
43385;Laerm;28988;48.042;7.584;2023-09-19T11:18:50;84.44;-33.67;93.76;;
43385;Laerm;28988;48.042;7.584;2023-09-19T11:26:44;84.30;-21.61;93.56;;
43385;Laerm;28988;48.042;7.584;2023-09-19T11:29:28;84.67;-37.51;94.17;;
43385;Laerm;28988;48.042;7.584;2023-09-19T11:31:54;86.70;-27.10;94.61;;
43385;Laerm;28988;48.042;7.584;2023-09-19T11:34:37;91.37;-35.00;98.13;;
43385;Laerm;28988;48.042;7.584;2023-09-19T11:37:03;95.05;-34.47;99.26;;
43385;Laerm;28988;48.042;7.584;2023-09-19T11:39:29;95.02;-19.63;99.55;;
43385;Laerm;28988;48.042;7.584;2023-09-19T11:41:54;94.20;-27.45;99.46;;
43385;Laerm;28988;48.042;7.584;2023-09-19T11:44:31;92.80;-26.96;99.42;;
43385;Laerm;28988;48.042;7.584;2023-09-19T11:46:59;93.06;-36.34;99.22;;
43385;Laerm;28988;48.042;7.584;2023-09-19T11:49:31;89.47;-43.49;95.58;;
43385;Laerm;28988;48.042;7.584;2023-09-19T11:51:57;87.27;-34.57;95.68;;
43385;Laerm;28988;48.042;7.584;2023-09-19T11:54:25;86.57;-27.87;94.55;;
43385;Laerm;28988;48.042;7.584;2023-09-19T11:56:54;92.32;-35.33;98.61;;
43385;Laerm;28988;48.042;7.584;2023-09-19T11:59:20;94.72;-58.05;99.59;;
43385;Laerm;28988;48.042;7.584;2023-09-19T12:01:52;94.48;-15.70;99.51;;
43385;Laerm;28988;48.042;7.584;2023-09-19T12:04:22;92.88;-35.46;99.09;;
43385;Laerm;28988;48.042;7.584;2023-09-19T12:06:58;85.43;-29.32;96.11;;
43385;Laerm;28988;48.042;7.584;2023-09-19T12:09:23;84.36;-36.96;94.05;;
43385;Laerm;28988;48.042;7.584;2023-09-19T12:11:50;84.81;-28.04;94.08;;
43385;Laerm;28988;48.042;7.584;2023-09-19T12:14:25;87.80;-20.90;95.26;;
43385;Laerm;28988;48.042;7.584;2023-09-19T12:16:54;87.91;-40.29;96.30;;
43385;Laerm;28988;48.042;7.584;2023-09-19T12:19:20;85.94;-28.66;95.26;;
43385;Laerm;28988;48.042;7.584;2023-09-19T12:21:53;84.73;-32.36;94.08;;
43385;Laerm;28988;48.042;7.584;2023-09-19T12:24:19;84.81;-36.26;93.53;;
43385;Laerm;28988;48.042;7.584;2023-09-19T12:26:46;84.76;-32.53;94.13;;
43385;Laerm;28988;48.042;7.584;2023-09-19T12:29:18;84.47;-30.20;93.86;;
43385;Laerm;28988;48.042;7.584;2023-09-19T12:32:01;84.48;-37.16;93.95;;
43385;Laerm;28988;48.042;7.584;2023-09-19T12:34:31;84.74;-36.25;93.93;;
43385;Laerm;28988;48.042;7.584;2023-09-19T12:39:44;91.88;-21.78;98.07;;
43385;Laerm;28988;48.042;7.584;2023-09-19T12:42:13;94.22;-23.60;99.31;;
43385;Laerm;28988;48.042;7.584;2023-09-19T12:44:43;89.36;-37.52;98.50;;
43385;Laerm;28988;48.042;7.584;2023-09-19T12:47:10;85.24;-45.02;96.63;;
43385;Laerm;28988;48.042;7.584;2023-09-19T12:49:35;89.44;-49.57;98.63;;
43385;Laerm;28988;48.042;7.584;2023-09-19T12:52:01;92.81;-23.61;99.50;;
43385;Laerm;28988;48.042;7.584;2023-09-19T12:54:37;94.90;-21.58;99.41;;
43385;Laerm;28988;48.042;7.584;2023-09-19T12:57:03;94.68;-61.59;98.87;;
43385;Laerm;28988;48.042;7.584;2023-09-19T12:59:30;95.11;-33.75;99.43;;
43385;Laerm;28988;48.042;7.584;2023-09-19T13:02:04;94.00;-43.27;99.48;;
43385;Laerm;28988;48.042;7.584;2023-09-19T13:04:38;92.94;-84.19;99.11;;
43385;Laerm;28988;48.042;7.584;2023-09-19T13:07:06;93.09;-32.49;99.14;;
43385;Laerm;28988;48.042;7.584;2023-09-19T13:09:34;94.09;-35.81;99.64;;
43385;Laerm;28988;48.042;7.584;2023-09-19T13:11:59;92.58;-31.16;99.24;;
43385;Laerm;28988;48.042;7.584;2023-09-19T13:14:27;90.17;-25.56;98.24;;
43385;Laerm;28988;48.042;7.584;2023-09-19T13:19:41;89.95;-52.24;98.47;;
43385;Laerm;28988;48.042;7.584;2023-09-19T13:24:56;86.73;-46.55;97.05;;
43385;Laerm;28988;48.042;7.584;2023-09-19T13:27:23;86.76;-37.54;96.62;;
43385;Laerm;28988;48.042;7.584;2023-09-19T13:29:48;88.85;-67.82;97.93;;
43385;Laerm;28988;48.042;7.584;2023-09-19T13:32:13;92.12;-48.51;98.91;;
43385;Laerm;28988;48.042;7.584;2023-09-19T13:34:39;93.38;-35.25;99.64;;
43385;Laerm;28988;48.042;7.584;2023-09-19T13:37:04;95.10;-24.79;99.47;;
43385;Laerm;28988;48.042;7.584;2023-09-19T13:39:29;94.43;-28.63;98.92;;
43385;Laerm;28988;48.042;7.584;2023-09-19T13:41:54;94.65;-24.98;98.87;;
43385;Laerm;28988;48.042;7.584;2023-09-19T13:44:20;95.20;-20.74;99.43;;
43385;Laerm;28988;48.042;7.584;2023-09-19T13:46:45;94.33;-38.43;99.48;;
43385;Laerm;28988;48.042;7.584;2023-09-19T13:49:11;92.86;-25.73;99.26;;
43385;Laerm;28988;48.042;7.584;2023-09-19T13:51:36;93.14;-32.80;99.23;;
43385;Laerm;28988;48.042;7.584;2023-09-19T13:54:02;95.10;-30.25;99.48;;
43385;Laerm;28988;48.042;7.584;2023-09-19T13:56:27;95.24;-35.69;99.17;;
43385;Laerm;28988;48.042;7.584;2023-09-19T13:58:57;93.99;-47.51;99.03;;
43385;Laerm;28988;48.042;7.584;2023-09-19T14:01:22;92.44;-21.78;97.81;;
43385;Laerm;28988;48.042;7.584;2023-09-19T14:03:47;90.81;-32.13;96.78;;
43385;Laerm;28988;48.042;7.584;2023-09-19T14:06:15;91.95;-39.86;97.94;;
43385;Laerm;28988;48.042;7.584;2023-09-19T14:08:40;94.35;-27.83;98.80;;
43385;Laerm;28988;48.042;7.584;2023-09-19T14:11:06;94.89;-22.35;99.00;;
43385;Laerm;28988;48.042;7.584;2023-09-19T14:13:31;95.16;-54.09;99.26;;